Weather at PSNI Maydown Heliport

Public forecast

Using degrees Celsius for public forecast. Weather courtesy of forecast.io.

Closest aviation weather report (METAR) to PSNI Maydown Heliport

Closest report is City of Derry Airport, 3.4 nm (6.3 km) ENE.

2024/05/21 13:20 (retrieved 16 minutes ago)

EGAE 211320Z 04007KT 010V070 9999 FEW020 SCT034 BKN049 18/14 Q1010

Closest aviation forecast (TAF) to PSNI Maydown Heliport

Closest forecast is Belfast International Airport, 42.2 nm (78.2 km) ESE.

2024/05/21 12:00 (retrieved 2 hours ago)

TAF EGAA 211101Z 2112/2212 07005KT 9999 SCT022 PROB30 TEMPO 2112/2120 3000 +SHRA +TSRA TEMPO 2204/2212 BKN010 PROB30 TEMPO 2205/2210 6000 SHRA BKN004